METAR Data
IDs: Format: Raw Decoded Include TAF

Data at: 0118 UTC 06 Dec 2019

KOGD 060053Z 00000KT 4SM BR OVC022 M01/M01 A3023 RMK AO2 SLP254 T10061006 $
KOGD 052357Z 00000KT 2 1/2SM BR OVC021 00/00 A3022 RMK AO2 T00000000 $
KOGD 052353Z 00000KT 3SM BR OVC021 M01/M01 A3022 RMK AO2 SLP247 T10061006 10000 21006 51013 $
KOGD 052348Z 00000KT 2 1/2SM BR OVC021 M01/M01 A3022 RMK AO2 $
KOGD 052339Z 00000KT 3SM BR OVC021 M01/M01 A3022 RMK AO2 T10061006 $
KOGD 052253Z 28003KT 2SM BR OVC018 00/00 A3020 RMK AO2 SLP242 T00000000 $
KOGD 052236Z 00000KT 2 1/2SM BR OVC018 00/00 A3019 RMK AO2 T00000000 $
KOGD 052153Z 00000KT 1 3/4SM BR OVC017 00/00 A3018 RMK AO2 SLP232 T00000000 /
KOGD 052128Z 00000KT 2SM BR OVC016 00/00 A3018 RMK AO2 T00000000 $
KOGD 052102Z 00000KT 1 3/4SM BR OVC016 00/00 A3017 RMK AO2 T00000000 $
KOGD 052053Z 00000KT 2SM BR OVC016 00/00 A3016 RMK AO2 SLP228 T00000000 51009 $
KOGD 051953Z 21003KT 2 1/2SM BR OVC015 00/00 A3015 RMK AO2 SLP223 T00000000 $
KOGD 051853Z 23004KT 2SM BR OVC018 M01/M01 A3015 RMK AO2 SLP225 T10061006 $
KOGD 051806Z 27004KT 1SM BR OVC020 M01/M01 A3013 RMK AO2 T10061006 $
KOGD 051753Z 00000KT 3/4SM BR OVC020 M01/M01 A3013 RMK AO2 SLP219 60008 I6003 T10061006 11006 21017 51029 $
KOGD 051653Z 16004KT 1SM BR SCT015 OVC024 M01/M01 A3010 RMK AO2 SLP209 T10111011 $
KOGD 051635Z 15003KT 1SM BR BKN015 OVC020 M01/M01 A3009 RMK AO2 T10111011 $
KOGD 051623Z 15003KT 3/4SM BR OVC017 M02/M02 A3008 RMK AO2 T10171017 $
KOGD 051553Z 00000KT 1/4SM FZFG FEW003 OVC018 M02/M02 A3007 RMK AO2 UPE01 SLP202 P0000 T10171017 $
KOGD 051544Z 26003KT 1/4SM FZFG FEW003 SCT006 OVC019 M02/M02 A3007 RMK AO2 UPE01 P0000 T10171017 $
KOGD 051517Z 00000KT 1/2SM FZFG OVC002 M02/M02 A3005 RMK AO2 UPE01 P0000 T10171017 $
KOGD 051501Z 00000KT 1/2SM FZFG OVC003 M02/M02 A3004 RMK AO2 UPE01 P0000 T10171017 $
KOGD 051453Z 00000KT 3/4SM UP BR BKN003 OVC023 M02/M02 A3003 RMK AO2 UPB02E10B27SNE02B10E27 SLP190 P0002 60008 I1001 I3003 T10171017 51022 $
KOGD 051450Z 00000KT 3/4SM UP BR BKN003 OVC023 M02/M02 A3003 RMK AO2 UPB02E10B27SNE02B10E27 P0002 I1001 $
KOGD 051353Z 32003KT 1/4SM -SN FZFG VV004 M02/M02 A3000 RMK AO2 UPE13FZRAB13E52SNB52 SLP177 P0002 I1002 T10171017 $
KOGD 051332Z 30003KT 1/4SM -FZRA FZFG VV005 M02/M02 A2998 RMK AO2 UPE13FZRAB13 P0001 I1001 T10171017 $
KOGD 051324Z AUTO 30003KT 1/4SM -FZRA FZFG VV002 M02/M02 A2998 RMK AO2 UPE13FZRAB13 P0001 I1001 T10171017 $
KOGD 051313Z AUTO 29003KT 1/4SM -FZRA FZFG BKN003 OVC020 M02/M02 A2997 RMK AO2 UPE13FZRAB13 P0000 I1001 T10171017 $
KOGD 051302Z AUTO 29003KT 1/4SM UP FZFG BKN007 OVC020 M02/M02 A2996 RMK AO2 P0000 T10171017 $
KOGD 051253Z AUTO 29004KT 1/4SM UP FZFG FEW014 OVC020 M02/M02 A2996 RMK AO2 SLP164 P0004 T10171017 $
KOGD 051239Z AUTO 27004KT 1/2SM UP FZFG SCT014 BKN021 OVC030 M02/M02 A2995 RMK AO2 P0003 T10171017 $
KOGD 051236Z AUTO 27005KT 1SM UP BR SCT014 BKN021 OVC030 M02/M02 A2995 RMK AO2 P0003 T10171017 $
KOGD 051210Z AUTO 18005KT 1 1/4SM UP BR OVC030 M01/M01 A2994 RMK AO2 P0001 T10111011 $
KOGD 051153Z AUTO 15005KT 1SM UP BR SCT020 OVC028 M01/M01 A2993 RMK AO2 UPB14FZRAE14 SLP153 P0004 60031 70031 I1000 I6012 T10111011 11011 21017 51010 $
KOGD 051137Z AUTO 12006KT 1SM UP BR OVC020 M02/M02 A2993 RMK AO2 UPB14FZRAE14 P0003 I1000 T10171017 $
KOGD 051121Z AUTO 11007KT 3/4SM UP BR OVC020 M02/M02 A2993 RMK AO2 UPB14FZRAE14 P0002 I1000 T10171017 $
KOGD 051114Z AUTO 11006KT 1SM UP BR OVC018 M02/M02 A2993 RMK AO2 UPB14FZRAE14 P0001 I1000 T10171017 $
KOGD 051100Z AUTO 11004KT 3/4SM -FZRA BR OVC016 M02/M02 A2993 RMK AO2 P0000 I1000 T10171017 $
KOGD 051053Z AUTO 00000KT 3/4SM -FZRA BR OVC014 M02/M02 A2993 RMK AO2 UPB39E41FZRAE39B41 SLP151 P0007 I1002 T10171017 $
KOGD 051027Z AUTO 29003KT 1/2SM -FZRA FZFG SCT002 OVC013 M02/M02 A2992 RMK AO2 P0004 I1001 T10171017 $
KOGD 051009Z AUTO 35003KT 3/4SM -FZRA BR BKN001 OVC006 M02/M02 A2992 RMK AO2 P0002 I1000 T10171017 $
KOGD 050953Z AUTO 03003KT 1/2SM -FZRA FZFG FEW001 OVC009 M02/M02 A2992 RMK AO2 SLP148 P0005 I1005 T10171017 $
KOGD 050942Z AUTO 00000KT 1/2SM -FZRA FZFG FEW001 OVC005 M02/M02 A2992 RMK AO2 P0004 I1004 T10171017 $
KOGD 050853Z AUTO 36004KT 1/2SM -FZRA FZFG VV002 M02/M02 A2990 RMK AO2 UPB0758E16FZRAB16SNE0758 SLP139 P0003 60015 I1002 I3005 T10171017 53003 $
KOGD 050822Z AUTO 01004KT 1/2SM -FZRA FZFG BKN002 OVC021 M02/M02 A2989 RMK AO2 UPB0758E16FZRAB16SNE0758 P0001 I1001 T10171017 $
KOGD 050814Z AUTO 02004KT 1/2SM UP FZFG BKN002 OVC021 M02/M02 A2989 RMK AO2 UPB0758SNE0758 P0001 I1000 T10171017 $
KOGD 050801Z AUTO 01004KT 1/2SM UP FZFG FEW005 SCT015 OVC021 M02/M02 A2989 RMK AO2 UPB0758SNE0758 P0000 T10171017 $
KOGD 050753Z AUTO 01004KT 3/4SM -SN BR BKN016 OVC021 M02/M02 A2989 RMK AO2 FZRAE27SNB27 SLP134 P0006 I1002 T10171017 $
KOGD 050733Z AUTO 00000KT 1SM -SN BR BKN018 OVC024 M02/M02 A2989 RMK AO2 FZRAE27SNB27 P0004 I1002 T10171017 $
KOGD 050721Z AUTO 00000KT 1 1/4SM -FZRA BR SCT018 BKN024 OVC031 M02/M02 A2989 RMK AO2 P0003 I1002 T10171017 $
KOGD 050653Z AUTO 00000KT 1 1/4SM -FZRA BR FEW003 OVC030 M02/M02 A2989 RMK AO2 UPE15B36E51FZRAB15E24B51SNB24E36 SLP138 P0006 I1001 T10171017 410171067 $
KOGD 050649Z AUTO 00000KT 1 1/4SM UP BR FEW003 OVC028 M02/M02 A2989 RMK AO2 UPE15B36FZRAB15E24SNB24E36 P0006 I1001 $
KOGD 050642Z AUTO 00000KT 1 1/4SM UP BR OVC028 M02/M02 A2989 RMK AO2 UPE15B36FZRAB15E24SNB24E36 P0005 I1001 T10221022 $
KOGD 050630Z AUTO 16003KT 1 1/4SM -SN BR OVC030 M02/M02 A2989 RMK AO2 UPE15FZRAB15E24SNB24 P0004 I1001 T10221022 $
KOGD 050620Z AUTO 00000KT 1 3/4SM FZRA BR OVC034 M02/M02 A2989 RMK AO2 UPE15FZRAB15 P0002 I1001 T10221022 $
KOGD 050553Z AUTO 14004KT 1 3/4SM UP BR OVC048 M02/M02 A2990 RMK AO2 UPB34 SLP146 P0000 60000 T10221022 11022 21044 53001 $
KOGD 050532Z AUTO 18007KT 2 1/2SM BR BKN055 BKN075 OVC090 M02/M03 A2991 RMK AO2 T10221028 $
KOGD 050453Z AUTO 26004KT 3SM BR OVC100 M03/M03 A2989 RMK AO2 SLP144 T10281033 $
KOGD 050439Z AUTO 00000KT 3SM BR OVC100 M03/M03 A2988 RMK AO2 T10281028 $
KOGD 050353Z AUTO 00000KT 2 1/2SM BR SCT110 M03/M03 A2988 RMK AO2 SLP141 T10331033 $
KOGD 050253Z 32005KT 2 1/2SM BR SCT110 M04/M04 A2989 RMK AO2 SLP145 T10391039 58015 $
KOGD 050153Z 00000KT 2 1/2SM BR BKN120 M04/M04 A2992 RMK AO2 SLP157 T10441044 $
KOGD 050053Z 27005KT 2 1/2SM BR CLR M04/M04 A2993 RMK AO2 SLP156 T10391039 $
KOGD 050017Z 00000KT 2SM BR CLR M04/M04 A2993 RMK AO2 T10391039 $
KOGD 042353Z 26003KT 1 1/4SM BR CLR M04/M04 A2994 RMK AO2 SLP163 T10391039 11017 21056 56014 $
KOGD 042253Z 30004KT 1 1/2SM BR CLR M03/M03 A2996 RMK AO2 SLP165 T10281033 $
KOGD 042238Z 31004KT 1 1/2SM BR FEW110 M03/M03 A2995 RMK AO2 T10281033 $
KOGD 042226Z 31003KT 2SM BR SCT110 M02/M03 A2996 RMK AO2 T10221028 $
KOGD 042153Z 00000KT 1 1/2SM BR OVC110 M03/M03 A2996 RMK AO2 SLP162 T10281028 $
KOGD 042109Z 31004KT 1 3/4SM BR OVC110 M02/M03 A2999 RMK AO2 T10221028 $
KOGD 042053Z 30004KT 2 1/2SM BR OVC110 M02/M03 A2999 RMK AO2 SLP175 T10221028 56018 $
KOGD 042013Z 31004KT 2SM BR FEW085 OVC110 M02/M03 A2999 RMK AO2 T10221028 $
KOGD 041953Z 34003KT 1 3/4SM BR SCT090 OVC110 M02/M03 A3000 RMK AO2 SLP178 T10171028 $
KOGD 041943Z 35003KT 2SM BR FEW090 OVC110 M02/M03 A3002 RMK AO2 T10221028 $
KOGD 041928Z 32004KT 1 3/4SM BR SCT090 OVC110 M03/M03 A3003 RMK AO2 T10281028 $
KOGD 041908Z 29004KT 2SM BR OVC120 M02/M03 A3005 RMK AO2 T10221028 $
KOGD 041853Z 00000KT 1 1/2SM BR OVC110 M03/M03 A3005 RMK AO2 SLP198 T10281033 $
KOGD 041830Z 00000KT 1 1/2SM BR OVC120 M03/M03 A3006 RMK AO2 T10331033 $
KOGD 041817Z 00000KT 3/4SM BR FEW002 OVC120 M05/M05 A3007 RMK AO2 T10501050 $
KOGD 041810Z 00000KT 1/2SM FZFG SCT002 OVC120 M05/M05 A3007 RMK AO2 T10501050 $
KOGD 041753Z 29003KT 1/4SM FZFG VV001 M06/M06 A3008 RMK AO2 SLP212 I6000 T10561056 11033 21067 55006 $
KOGD 041742Z 32005KT 1/2SM FZFG VV001 M05/M05 A3007 RMK AO2 T10501050 $
KOGD 041738Z 33006KT 1SM BR VV002 M04/M04 A3007 RMK AO2 T10441044 $
KOGD 041731Z 32003KT 1SM BR VV003 M05/M05 A3006 RMK AO2 T10501050 $
KOGD 041653Z 00000KT 1/4SM FZFG VV003 M07/M07 A3007 RMK AO2 SLP213 T10671067 $
KOGD 041645Z 00000KT M1/4SM FZFG VV003 M07/M07 A3007 RMK AO2 T10671067 $
KOGD 041623Z 00000KT 1/4SM FZFG M07/M07 A3009 RMK AO2 T10671067 $
KOGD 041616Z 00000KT 3/4SM BR M06/M06 A3009 RMK AO2 T10611061 $
KOGD 041605Z M04/M04 A3009 RMK AO2 T10441044 $
KOGD 041603Z 1SM BR VV003 M04/M04 A3009 RMK AO2 T10441044 $
KOGD 041553Z 21003KT 1/2SM FZFG VV003 M06/M06 A3009 RMK AO2 SLP216 T10561056
KOGD 041536Z 00000KT 1/4SM FZFG VV003 M06/M06 A3009 RMK AO2 T10611061
KOGD 041511Z 00000KT 1/2SM FZFG VV002 M07/M07 A3010 RMK AO2 T10671067
KOGD 041457Z 03005KT 1SM BR VV002 M05/M05 A3010 RMK AO2 T10501050
KOGD 041453Z 04003KT 1/4SM FZFG VV002 M04/M04 A3010 RMK AO2 SLP217 I1000 I3000 T10441044 55009
KOGD 041432Z 35004KT 1/4SM FZFG VV002 M06/M06 A3009 RMK AO2 I1000 T10611061
KOGD 041416Z 00000KT 3/4SM BR VV002 M06/M06 A3009 RMK AO2 T10561056
KOGD 041358Z 00000KT 1 3/4SM BR CLR M06/M06 A3008 RMK AO2 T10561056
KOGD 041353Z 08003KT 3SM BR CLR M05/M05 A3008 RMK AO2 SLP212 I1000 T10501050
KOGD 041344Z 06003KT 4SM BR CLR M04/M04 A3009 RMK AO2 I1000 T10391039
KOGD 041321Z AUTO 32004KT 2 1/2SM BR CLR M04/M04 A3010 RMK AO2 I1000 T10441044